Time;durP1;ratioP1;P1;durP2;ratioP2;P2;SDS_P1;SDS_P2;PMS_P1;PMS_P2;Temp;Humidity;BMP_temperature;BMP_pressure;BME280_temperature;BME280_humidity;BME280_pressure;Samples;Min_cycle;Max_cycle;Signal;HPM_P1;HPM_P2
2022/11/01 00:00:16;;;;;;;6.13;3.67;;;;;;;11.90;nan;-24149.34;5094436;28;20299;-72
2022/11/01 00:02:41;;;;;;;9.60;4.37;;;;;;;12.04;nan;-24153.28;5094361;28;20256;-73
2022/11/01 00:05:07;;;;;;;7.93;4.13;;;;;;;11.62;nan;-24141.44;5094517;28;20547;-72
2022/11/01 00:07:33;;;;;;;9.20;4.00;;;;;;;11.78;nan;-24146.09;5094258;28;20184;-73
2022/11/01 00:09:58;;;;;;;5.43;3.80;;;;;;;12.02;nan;-24152.72;5093759;28;20278;-73
2022/11/01 00:12:23;;;;;;;12.47;4.63;;;;;;;11.90;nan;-24149.34;5094108;28;20204;-73
2022/11/01 00:14:52;;;;;;;8.20;4.40;;;;;;;11.98;nan;-24151.59;5093719;28;20174;-73
2022/11/01 00:17:17;;;;;;;8.20;3.58;;;;;;;11.57;nan;-24140.19;5093762;28;20589;-73
2022/11/01 00:19:43;;;;;;;6.70;3.47;;;;;;;11.54;nan;-24139.34;5093741;28;20173;-74
2022/11/01 00:22:08;;;;;;;7.28;4.10;;;;;;;11.60;nan;-24140.88;5093189;28;20281;-73
2022/11/01 00:24:33;;;;;;;10.32;4.35;;;;;;;11.79;nan;-24146.25;5093024;28;20177;-73
2022/11/01 00:27:54;;;;;;;6.13;3.58;;;;;;;11.89;nan;-24149.06;5092039;28;20219;-74
2022/11/01 00:30:20;;;;;;;9.88;3.95;;;;;;;11.87;nan;-24148.50;5093557;28;20531;-72
2022/11/01 00:32:46;;;;;;;9.95;4.45;;;;;;;11.49;nan;-24138.06;5093448;28;20747;-74
2022/11/01 00:35:11;;;;;;;7.95;4.20;;;;;;;11.67;nan;-24143.00;5093643;28;20177;-73
2022/11/01 00:37:36;;;;;;;7.53;4.15;;;;;;;11.39;nan;-24135.25;5092778;28;20234;-73
2022/11/01 00:40:02;;;;;;;5.78;3.97;;;;;;;11.28;nan;-24132.00;5093511;28;20219;-74
2022/11/01 00:42:27;;;;;;;10.25;4.13;;;;;;;11.47;nan;-24137.34;5092184;28;20189;-73
2022/11/01 00:44:53;;;;;;;7.27;4.40;;;;;;;11.56;nan;-24139.91;5093575;28;20227;-73
2022/11/01 00:47:18;;;;;;;9.07;4.40;;;;;;;11.28;nan;-24132.16;5094228;28;20565;-73
2022/11/01 00:49:44;;;;;;;9.53;4.57;;;;;;;11.49;nan;-24138.06;5092175;28;20651;-73
2022/11/01 00:52:09;;;;;;;6.53;3.70;;;;;;;11.16;nan;-24128.63;5093689;28;20286;-73
2022/11/01 00:54:35;;;;;;;8.90;3.80;;;;;;;11.51;nan;-24138.63;5093515;28;20169;-73
2022/11/01 00:57:00;;;;;;;4.78;3.58;;;;;;;11.28;nan;-24132.00;5092234;28;20182;-74
2022/11/01 00:59:26;;;;;;;6.07;3.75;;;;;;;11.21;nan;-24130.19;5093656;28;20192;-73
2022/11/01 01:01:51;;;;;;;9.23;4.10;;;;;;;11.35;nan;-24134.13;5093226;28;20170;-74
2022/11/01 01:04:16;;;;;;;7.18;4.10;;;;;;;11.13;nan;-24127.78;5092851;28;20174;-74
2022/11/01 01:06:42;;;;;;;8.53;4.80;;;;;;;11.59;nan;-24140.59;5093728;28;20252;-74
2022/11/01 01:09:10;;;;;;;6.70;3.33;;;;;;;11.11;nan;-24127.22;5091530;28;20187;-73
2022/11/01 01:11:35;;;;;;;5.97;3.10;;;;;;;11.22;nan;-24130.47;5092909;28;20162;-72
2022/11/01 01:14:00;;;;;;;8.10;3.50;;;;;;;11.48;nan;-24137.78;5092985;28;20208;-73
2022/11/01 01:16:26;;;;;;;8.40;4.03;;;;;;;11.03;nan;-24125.25;5091295;28;20264;-73
2022/11/01 01:18:51;;;;;;;7.13;4.10;;;;;;;11.00;nan;-24124.41;5092260;28;20263;-73
2022/11/01 01:21:16;;;;;;;6.70;3.97;;;;;;;11.22;nan;-24130.31;5092790;28;20222;-73
2022/11/01 01:23:42;;;;;;;4.67;3.50;;;;;;;11.23;nan;-24130.75;5092456;28;20161;-74
2022/11/01 01:26:09;;;;;;;10.70;4.10;;;;;;;11.33;nan;-24133.56;5092355;28;20710;-73
2022/11/01 01:28:35;;;;;;;7.57;3.70;;;;;;;11.39;nan;-24135.09;5092243;28;20185;-73
2022/11/01 01:31:06;;;;;;;5.63;3.20;;;;;;;11.35;nan;-24133.97;5092723;28;20238;-74
2022/11/01 01:33:31;;;;;;;8.03;3.87;;;;;;;11.46;nan;-24137.22;5091989;28;20197;-73
2022/11/01 01:35:59;;;;;;;12.63;4.17;;;;;;;11.31;nan;-24132.84;5092772;28;20173;-74
2022/11/01 01:38:25;;;;;;;9.47;4.07;;;;;;;11.30;nan;-24132.72;5091947;28;20629;-73
2022/11/01 01:40:50;;;;;;;7.17;3.73;;;;;;;11.24;nan;-24130.88;5091900;28;20331;-73
2022/11/01 01:43:15;;;;;;;6.63;4.03;;;;;;;11.16;nan;-24128.63;5092716;28;20541;-73
2022/11/01 01:45:41;;;;;;;6.07;3.30;;;;;;;11.07;nan;-24126.22;5092530;28;20183;-73
2022/11/01 01:48:13;;;;;;;7.13;4.10;;;;;;;10.83;nan;-24119.59;5092351;28;20231;-73
2022/11/01 01:50:47;;;;;;;10.27;4.03;;;;;;;11.10;nan;-24127.06;5092460;28;20173;-73
2022/11/01 01:53:22;;;;;;;7.10;3.97;;;;;;;11.16;nan;-24128.75;5092300;28;20184;-74
2022/11/01 01:55:56;;;;;;;7.23;4.10;;;;;;;10.81;nan;-24118.91;5092277;28;20632;-74
2022/11/01 01:58:30;;;;;;;7.00;4.00;;;;;;;11.16;nan;-24128.63;5092381;28;20161;-74
2022/11/01 02:00:56;;;;;;;8.67;4.30;;;;;;;11.17;nan;-24129.03;5092807;28;20172;-74
2022/11/01 02:03:26;;;;;;;9.60;4.47;;;;;;;11.06;nan;-24125.94;5092584;28;20173;-73
2022/11/01 02:06:06;;;;;;;6.33;4.17;;;;;;;10.95;nan;-24122.84;5092269;28;20668;-74
2022/11/01 02:08:32;;;;;;;6.43;3.90;;;;;;;11.24;nan;-24131.03;5090835;28;20632;-73
2022/11/01 02:11:00;;;;;;;9.93;4.47;;;;;;;11.26;nan;-24131.59;5092369;28;20166;-74
2022/11/01 02:13:25;;;;;;;14.77;3.97;;;;;;;11.00;nan;-24124.41;5091918;28;20315;-73
2022/11/01 02:16:12;;;;;;;9.00;4.03;;;;;;;11.24;nan;-24131.03;5092043;28;20197;-72
2022/11/01 02:18:46;;;;;;;5.60;3.97;;;;;;;10.87;nan;-24120.59;5091972;28;20249;-72
2022/11/01 02:21:17;;;;;;;8.47;3.80;;;;;;;11.15;nan;-24128.34;5092251;28;20180;-72
2022/11/01 02:24:17;;;;;;;6.77;4.20;;;;;;;11.08;nan;-24126.50;5091395;28;20166;-73
2022/11/01 02:27:01;;;;;;;10.40;4.43;;;;;;;11.06;nan;-24125.94;5077682;28;20217;-74
2022/11/01 02:30:15;;;;;;;6.13;4.10;;;;;;;10.98;nan;-24123.84;5092067;28;20310;-74
2022/11/01 02:33:00;;;;;;;9.80;3.70;;;;;;;10.90;nan;-24121.56;5090189;28;20212;-73
2022/11/01 02:35:34;;;;;;;8.37;4.43;;;;;;;10.47;nan;-24109.59;5090632;28;20701;-73
2022/11/01 02:38:27;;;;;;;7.60;4.00;;;;;;;10.79;nan;-24118.47;5091808;28;20169;-73
2022/11/01 02:41:07;;;;;;;6.17;4.00;;;;;;;10.80;nan;-24118.75;5087296;28;20225;-73
2022/11/01 02:43:54;;;;;;;9.67;4.87;;;;;;;10.66;nan;-24114.81;5091546;28;20179;-73
2022/11/01 02:49:06;;;;;;;8.37;4.20;;;;;;;10.69;nan;-24115.66;5092041;28;20308;-73
2022/11/01 02:51:35;;;;;;;13.63;4.33;;;;;;;10.68;nan;-24115.38;5091860;28;20177;-73
2022/11/01 02:54:19;;;;;;;7.90;4.13;;;;;;;10.41;nan;-24107.88;5091503;28;20204;-74
2022/11/01 02:56:45;;;;;;;8.03;4.23;;;;;;;10.59;nan;-24112.81;5091961;28;20180;-74
2022/11/01 02:59:18;;;;;;;8.73;4.37;;;;;;;10.60;nan;-24113.25;5092013;28;20165;-74
2022/11/01 03:01:52;;;;;;;6.60;4.50;;;;;;;10.46;nan;-24109.16;5091837;28;20173;-73
2022/11/01 03:04:17;;;;;;;6.87;3.70;;;;;;;10.49;nan;-24110.16;5091984;28;20174;-73
2022/11/01 03:06:51;;;;;;;6.77;4.00;;;;;;;10.66;nan;-24114.66;5091335;28;20222;-72
2022/11/01 03:09:17;;;;;;;7.00;3.93;;;;;;;10.41;nan;-24107.88;5091731;28;20197;-73
2022/11/01 03:12:03;;;;;;;8.47;4.00;;;;;;;10.63;nan;-24114.09;5092262;28;20251;-73
2022/11/01 03:14:40;;;;;;;11.47;4.13;;;;;;;10.60;nan;-24113.25;5091647;28;20518;-73
2022/11/01 03:17:21;;;;;;;9.57;3.37;;;;;;;10.57;nan;-24112.25;5091140;28;20170;-72
2022/11/01 03:19:52;;;;;;;6.30;3.43;;;;;;;10.60;nan;-24113.25;5090687;28;20278;-73
2022/11/01 03:22:17;;;;;;;7.77;4.67;;;;;;;10.58;nan;-24112.69;5091576;28;20207;-73
2022/11/01 03:25:56;;;;;;;4.77;3.40;;;;;;;10.62;nan;-24113.81;5091360;28;20170;-74
2022/11/01 03:28:06;;;;;;;6.87;3.30;;;;;;;10.68;nan;-24115.38;5082916;28;20185;-73
2022/11/01 03:30:33;;;;;;;12.17;4.40;;;;;;;10.35;nan;-24106.19;5091221;28;20252;-73
2022/11/01 03:32:59;;;;;;;6.20;4.10;;;;;;;10.52;nan;-24110.84;5091189;28;20212;-74
2022/11/01 03:35:28;;;;;;;6.27;3.77;;;;;;;10.52;nan;-24111.00;5091174;28;20165;-73
2022/11/01 03:37:58;;;;;;;6.03;3.60;;;;;;;10.50;nan;-24110.44;5091472;28;20280;-73
2022/11/01 03:40:27;;;;;;;9.23;3.13;;;;;;;10.17;nan;-24101.13;5089823;28;20173;-72
2022/11/01 03:42:58;;;;;;;7.57;3.93;;;;;;;10.57;nan;-24112.41;5091156;28;20197;-73
2022/11/01 03:45:25;;;;;;;6.67;3.70;;;;;;;10.22;nan;-24102.53;5091853;28;20173;-73
2022/11/01 03:47:51;;;;;;;9.03;3.33;;;;;;;10.43;nan;-24108.31;5091629;28;20619;-73
2022/11/01 03:50:23;;;;;;;6.80;3.57;;;;;;;10.47;nan;-24109.59;5091372;28;20243;-73
2022/11/01 03:52:48;;;;;;;6.27;3.33;;;;;;;10.13;nan;-24099.97;5091059;28;20205;-72
2022/11/01 03:55:19;;;;;;;5.50;3.30;;;;;;;10.48;nan;-24109.88;5091145;28;20674;-73
2022/11/01 03:57:44;;;;;;;4.60;3.07;;;;;;;10.40;nan;-24107.63;5091837;28;20205;-73
2022/11/01 04:00:15;;;;;;;5.80;3.93;;;;;;;10.32;nan;-24105.34;5094568;28;20636;-73
2022/11/01 04:02:42;;;;;;;4.90;3.37;;;;;;;10.03;nan;-24097.16;5094611;28;20197;-73
2022/11/01 04:05:08;;;;;;;5.17;3.57;;;;;;;10.33;nan;-24105.50;5094840;28;20248;-73
2022/11/01 04:07:33;;;;;;;5.30;3.43;;;;;;;10.34;nan;-24105.91;5094600;28;20230;-73
2022/11/01 04:09:58;;;;;;;7.67;3.90;;;;;;;9.97;nan;-24095.59;5094471;28;20587;-73
2022/11/01 04:12:24;;;;;;;6.37;3.40;;;;;;;10.18;nan;-24101.41;5094054;28;20203;-72
2022/11/01 04:20:32;;;;;;;3.77;2.70;;;;;;;9.90;nan;-24093.47;5094935;28;20322;-75
2022/11/01 04:22:58;;;;;;;6.73;3.90;;;;;;;9.84;nan;-24091.78;5094367;28;20169;-73
2022/11/01 04:25:24;;;;;;;7.10;3.77;;;;;;;10.10;nan;-24099.28;5094263;28;20363;-74
2022/11/01 04:27:49;;;;;;;4.80;3.57;;;;;;;9.93;nan;-24094.47;5094033;28;20248;-72
2022/11/01 04:30:15;;;;;;;7.03;3.73;;;;;;;10.11;nan;-24099.56;5091839;28;20188;-73
2022/11/01 04:32:43;;;;;;;5.90;4.00;;;;;;;9.79;nan;-24090.53;5081531;28;20207;-72
2022/11/01 04:35:12;;;;;;;5.73;3.43;;;;;;;10.08;nan;-24098.72;5085909;28;20189;-74
2022/11/01 04:37:38;;;;;;;9.47;3.43;;;;;;;9.63;nan;-24086.00;5085639;28;20565;-74
2022/11/01 04:40:07;;;;;;;8.97;4.30;;;;;;;10.00;nan;-24096.31;5084869;28;20181;-73
2022/11/01 04:42:34;;;;;;;6.83;3.77;;;;;;;9.89;nan;-24093.22;5085241;28;20185;-73
2022/11/01 04:45:00;;;;;;;6.63;3.90;;;;;;;9.64;nan;-24086.44;5085735;28;20268;-74
2022/11/01 04:47:26;;;;;;;5.10;2.87;;;;;;;6.75;nan;-24005.44;5086795;28;21900;-75
2022/11/01 04:49:51;;;;;;;4.13;3.23;;;;;;;9.67;nan;-24087.28;5082270;28;20181;-74
2022/11/01 04:52:17;;;;;;;5.77;3.77;;;;;;;10.05;nan;-24097.72;5084397;28;20201;-73
2022/11/01 04:54:42;;;;;;;6.47;3.13;;;;;;;10.06;nan;-24098.00;5086302;28;20307;-74
2022/11/01 04:57:21;;;;;;;4.17;2.87;;;;;;;9.67;nan;-24087.28;5085363;28;20571;-74
2022/11/01 04:59:54;;;;;;;3.70;3.13;;;;;;;9.72;nan;-24088.69;5084174;28;20196;-75
2022/11/01 05:02:22;;;;;;;6.37;3.43;;;;;;;9.71;nan;-24088.41;5085145;28;20185;-74
2022/11/01 05:04:48;;;;;;;4.87;3.20;;;;;;;9.76;nan;-24089.81;5083340;28;21927;-73
2022/11/01 05:07:14;;;;;;;5.00;3.60;;;;;;;10.10;nan;-24099.13;5084367;28;20170;-73
2022/11/01 05:09:40;;;;;;;4.77;2.93;;;;;;;10.09;nan;-24098.84;5084711;28;20207;-73
2022/11/01 05:12:06;;;;;;;5.70;3.60;;;;;;;9.89;nan;-24093.34;5083398;28;20193;-73
2022/11/01 05:14:31;;;;;;;4.57;2.67;;;;;;;9.94;nan;-24094.63;5084568;28;20219;-73
2022/11/01 05:16:58;;;;;;;4.70;3.40;;;;;;;10.05;nan;-24097.72;5083709;28;20217;-73
2022/11/01 05:19:23;;;;;;;6.80;3.60;;;;;;;10.08;nan;-24098.56;5085804;28;20185;-73
2022/11/01 05:21:50;;;;;;;6.57;3.33;;;;;;;10.15;nan;-24100.69;5085808;28;20219;-73
2022/11/01 05:24:15;;;;;;;3.50;2.70;;;;;;;10.37;nan;-24106.75;5084173;28;20252;-74
2022/11/01 05:26:41;;;;;;;10.43;3.27;;;;;;;10.09;nan;-24099.00;5082284;28;20229;-73
2022/11/01 05:29:07;;;;;;;5.90;3.43;;;;;;;10.39;nan;-24107.31;5085755;28;20285;-74
2022/11/01 05:31:32;;;;;;;4.03;3.00;;;;;;;10.12;nan;-24099.69;5083227;28;20173;-74
2022/11/01 05:33:58;;;;;;;5.43;3.13;;;;;;;10.21;nan;-24102.09;5076281;28;20571;-74
2022/11/01 05:36:23;;;;;;;5.47;3.27;;;;;;;10.54;nan;-24111.41;5084121;28;20186;-73
2022/11/01 05:38:49;;;;;;;6.30;3.33;;;;;;;10.66;nan;-24114.66;5085649;28;20778;-73
2022/11/01 05:41:14;;;;;;;8.93;3.47;;;;;;;10.76;nan;-24117.63;5083617;28;20196;-73
2022/11/01 05:43:40;;;;;;;6.87;3.10;;;;;;;10.48;nan;-24109.88;5083979;28;20630;-73
2022/11/01 05:46:06;;;;;;;5.73;3.17;;;;;;;10.55;nan;-24111.69;5084738;28;20177;-74
2022/11/01 05:48:33;;;;;;;4.93;3.07;;;;;;;10.67;nan;-24115.09;5083792;28;20694;-74
2022/11/01 05:50:59;;;;;;;6.07;3.80;;;;;;;11.03;nan;-24125.09;5084391;28;20618;-72
2022/11/01 05:53:24;;;;;;;4.53;2.93;;;;;;;10.86;nan;-24120.44;5081795;28;20216;-75
2022/11/01 05:55:50;;;;;;;5.33;3.30;;;;;;;11.21;nan;-24130.19;5085593;28;20617;-74
2022/11/01 05:58:15;;;;;;;5.47;3.03;;;;;;;11.19;nan;-24129.47;5084777;28;20186;-75
2022/11/01 06:00:41;;;;;;;8.90;3.80;;;;;;;11.26;nan;-24131.59;5081937;28;20181;-75
2022/11/01 06:03:06;;;;;;;5.10;3.27;;;;;;;11.42;nan;-24136.09;5085306;28;20189;-75
2022/11/01 06:05:32;;;;;;;4.63;3.07;;;;;;;11.59;nan;-24140.75;5082845;28;20185;-74
2022/11/01 06:08:00;;;;;;;4.82;3.10;;;;;;;11.63;nan;-24141.72;5082387;28;20181;-75
2022/11/01 06:10:26;;;;;;;3.85;2.83;;;;;;;11.72;nan;-24144.25;5084323;28;20661;-74
2022/11/01 06:12:52;;;;;;;5.83;3.70;;;;;;;11.58;nan;-24140.47;5081662;28;20209;-74
2022/11/01 06:15:17;;;;;;;8.75;3.97;;;;;;;11.82;nan;-24147.09;5083061;28;20529;-75
2022/11/01 06:17:43;;;;;;;4.57;3.30;;;;;;;11.80;nan;-24146.53;5083666;28;20335;-74
2022/11/01 06:20:08;;;;;;;3.67;2.90;;;;;;;12.05;nan;-24153.41;5081549;28;20283;-75
2022/11/01 06:22:37;;;;;;;7.00;3.90;;;;;;;12.41;nan;-24163.56;5081711;28;20213;-75
2022/11/01 06:25:04;;;;;;;5.65;3.47;;;;;;;12.27;nan;-24159.75;5075392;28;20342;-74
2022/11/01 06:27:30;;;;;;;5.55;3.33;;;;;;;12.72;nan;-24172.13;5082057;28;20188;-74
2022/11/01 06:29:55;;;;;;;9.23;3.92;;;;;;;12.91;nan;-24177.47;5083922;28;20181;-74
2022/11/01 06:32:21;;;;;;;7.57;3.47;;;;;;;12.70;nan;-24171.72;5084046;28;20204;-74
2022/11/01 06:34:46;;;;;;;6.63;3.20;;;;;;;12.73;nan;-24172.41;5082656;28;20649;-74
2022/11/01 06:37:12;;;;;;;10.23;4.13;;;;;;;13.06;nan;-24181.69;5081352;28;20575;-74
2022/11/01 06:39:37;;;;;;;4.63;3.00;;;;;;;13.31;nan;-24188.44;5083736;28;20177;-75
2022/11/01 06:42:03;;;;;;;7.65;3.50;;;;;;;13.46;nan;-24192.78;5084819;28;20273;-75
2022/11/01 06:44:28;;;;;;;4.22;3.17;;;;;;;13.60;nan;-24196.72;5082757;28;20257;-75
2022/11/01 06:46:54;;;;;;;6.75;2.92;;;;;;;13.23;nan;-24186.47;5083529;28;20177;-74
2022/11/01 06:49:20;;;;;;;7.45;3.60;;;;;;;13.66;nan;-24198.28;5084517;28;20185;-74
2022/11/01 06:51:46;;;;;;;4.13;3.20;;;;;;;13.47;nan;-24192.94;5084462;28;20212;-75
2022/11/01 06:54:12;;;;;;;5.63;3.58;;;;;;;13.89;nan;-24204.72;5081879;28;20221;-74
2022/11/01 06:56:37;;;;;;;5.15;2.72;;;;;;;14.03;nan;-24208.66;5084636;28;20181;-73
2022/11/01 06:59:04;;;;;;;4.63;2.90;;;;;;;14.24;nan;-24214.28;5084623;28;20690;-74
2022/11/01 07:01:29;;;;;;;4.13;3.05;;;;;;;14.27;nan;-24215.25;5082985;28;20240;-74
2022/11/01 07:03:55;;;;;;;5.20;3.38;;;;;;;14.31;nan;-24216.38;5085815;28;20680;-74
2022/11/01 07:06:23;;;;;;;5.30;3.10;;;;;;;14.27;nan;-24215.25;5083896;28;20184;-75
2022/11/01 07:08:48;;;;;;;5.30;3.08;;;;;;;14.47;nan;-24220.88;5082528;28;20181;-71
2022/11/01 07:11:14;;;;;;;7.05;3.17;;;;;;;14.96;nan;-24234.31;5083271;28;20178;-72
2022/11/01 07:13:39;;;;;;;4.78;2.90;;;;;;;14.83;nan;-24230.69;5083989;28;20205;-70
2022/11/01 07:16:05;;;;;;;7.72;3.25;;;;;;;15.14;nan;-24239.22;5083301;28;20185;-71
2022/11/01 07:18:31;;;;;;;6.03;3.30;;;;;;;15.16;nan;-24239.78;5083324;28;20185;-68
2022/11/01 07:21:00;;;;;;;8.40;3.20;;;;;;;15.56;nan;-24250.84;5083253;28;20208;-69
2022/11/01 07:23:28;;;;;;;5.47;2.85;;;;;;;15.47;nan;-24248.47;5081998;28;20178;-72
2022/11/01 07:25:53;;;;;;;3.95;2.78;;;;;;;15.81;nan;-24258.00;5083476;28;20300;-70
2022/11/01 07:28:19;;;;;;;5.75;3.05;;;;;;;15.74;nan;-24255.91;5083604;28;20738;-69
2022/11/01 07:30:49;;;;;;;6.93;2.90;;;;;;;16.08;nan;-24265.41;5083741;28;20181;-72
2022/11/01 07:33:15;;;;;;;7.40;3.00;;;;;;;16.36;nan;-24273.09;5086692;28;20197;-69
2022/11/01 07:35:40;;;;;;;4.63;2.75;;;;;;;16.63;nan;-24280.50;5087934;28;20197;-72
2022/11/01 07:38:06;;;;;;;4.50;2.80;;;;;;;16.70;nan;-24282.47;5087042;28;20177;-71
2022/11/01 07:40:31;;;;;;;4.07;2.80;;;;;;;16.62;nan;-24280.38;5086727;28;20181;-68
2022/11/01 07:42:59;;;;;;;5.80;2.90;;;;;;;17.10;nan;-24293.50;5087681;28;20191;-71
2022/11/01 07:45:26;;;;;;;4.03;2.90;;;;;;;16.89;nan;-24287.63;5086623;28;20208;-69
2022/11/01 07:47:52;;;;;;;3.97;2.28;;;;;;;17.08;nan;-24292.94;5086767;28;20266;-71
2022/11/01 07:50:18;;;;;;;4.45;2.60;;;;;;;17.10;nan;-24293.63;5086557;28;20635;-71
2022/11/01 07:52:44;;;;;;;3.10;2.50;;;;;;;17.32;nan;-24299.50;5086591;28;20205;-70
2022/11/01 07:55:09;;;;;;;5.70;2.47;;;;;;;16.65;nan;-24281.06;5086648;28;20644;-70
2022/11/01 07:57:39;;;;;;;2.80;2.17;;;;;;;17.37;nan;-24301.03;5087252;28;20543;-70
2022/11/01 08:00:06;;;;;;;5.50;2.65;;;;;;;17.22;nan;-24296.84;5086426;28;20310;-71
2022/11/01 08:02:31;;;;;;;6.30;3.00;;;;;;;17.39;nan;-24301.59;5086795;28;20182;-69
2022/11/01 08:04:57;;;;;;;5.60;3.20;;;;;;;17.83;nan;-24313.75;5087679;28;20196;-69
2022/11/01 08:07:22;;;;;;;4.65;2.85;;;;;;;17.94;nan;-24316.81;5087687;28;20226;-68
2022/11/01 08:09:48;;;;;;;5.68;2.67;;;;;;;17.96;nan;-24317.22;5087231;28;20204;-69
2022/11/01 08:12:13;;;;;;;4.25;2.72;;;;;;;17.88;nan;-24315.00;5088046;28;20177;-70
2022/11/01 08:14:38;;;;;;;5.18;2.97;;;;;;;18.26;nan;-24325.59;5088324;28;20181;-69
2022/11/01 08:17:04;;;;;;;4.50;2.60;;;;;;;18.26;nan;-24325.59;5087131;28;20192;-70
2022/11/01 08:19:29;;;;;;;3.53;2.60;;;;;;;18.31;nan;-24326.84;5086845;28;20223;-70
2022/11/01 08:21:58;;;;;;;5.10;2.50;;;;;;;18.59;nan;-24334.50;5086464;28;20213;-71
2022/11/01 08:24:25;;;;;;;4.97;2.60;;;;;;;18.77;nan;-24339.66;5085282;28;20640;-71
2022/11/01 08:26:52;;;;;;;6.18;2.40;;;;;;;18.78;nan;-24339.94;5086434;28;20228;-68
2022/11/01 08:29:17;;;;;;;3.42;2.70;;;;;;;18.56;nan;-24333.66;5086273;28;20179;-70
2022/11/01 08:31:44;;;;;;;3.47;2.20;;;;;;;18.42;nan;-24330.03;5086968;28;20566;-69
2022/11/01 08:34:09;;;;;;;4.10;3.08;;;;;;;18.73;nan;-24338.41;5086130;28;20205;-71
2022/11/01 08:36:35;;;;;;;6.15;2.70;;;;;;;19.23;nan;-24352.31;5086867;28;20204;-70
2022/11/01 08:39:00;;;;;;;4.40;2.67;;;;;;;19.10;nan;-24348.69;5086691;28;20737;-70
2022/11/01 08:41:27;;;;;;;6.97;2.53;;;;;;;19.34;nan;-24355.38;5085599;28;20176;-71
2022/11/01 08:43:53;;;;;;;6.80;2.58;;;;;;;19.24;nan;-24352.59;5085373;28;20624;-71
2022/11/01 08:46:19;;;;;;;5.75;2.40;;;;;;;19.57;nan;-24361.50;5086900;28;20693;-68
2022/11/01 08:48:46;;;;;;;3.17;2.38;;;;;;;19.59;nan;-24362.19;5086061;28;20181;-72
2022/11/01 08:51:12;;;;;;;9.30;2.25;;;;;;;19.72;nan;-24365.81;5086474;28;20636;-71
2022/11/01 08:53:37;;;;;;;3.08;2.30;;;;;;;18.91;nan;-24343.41;5086664;28;20226;-70
2022/11/01 08:56:03;;;;;;;3.53;2.22;;;;;;;19.46;nan;-24358.44;5086253;28;20632;-70
2022/11/01 08:58:28;;;;;;;4.28;2.58;;;;;;;19.58;nan;-24361.91;5085816;28;20235;-72
2022/11/01 09:00:53;;;;;;;3.78;2.33;;;;;;;19.81;nan;-24368.19;5086533;28;20169;-69
2022/11/01 09:03:19;;;;;;;4.13;2.17;;;;;;;20.05;nan;-24374.84;5086220;28;20169;-68
2022/11/01 09:05:44;;;;;;;8.80;2.30;;;;;;;19.93;nan;-24371.50;5085180;28;20564;-71
2022/11/01 09:08:10;;;;;;;2.63;2.13;;;;;;;19.95;nan;-24372.06;5085838;28;20173;-68
2022/11/01 09:10:35;;;;;;;3.42;2.08;;;;;;;20.09;nan;-24375.97;5085864;28;20559;-72
2022/11/01 09:13:01;;;;;;;3.42;2.42;;;;;;;20.29;nan;-24381.38;5085320;28;20204;-70
2022/11/01 09:15:26;;;;;;;3.42;2.10;;;;;;;20.27;nan;-24380.97;5085459;28;20675;-70
2022/11/01 09:17:52;;;;;;;5.53;2.20;;;;;;;20.61;nan;-24390.25;5084519;28;20624;-69
2022/11/01 09:20:18;;;;;;;6.13;3.10;;;;;;;20.21;nan;-24379.28;5085982;28;20591;-68
2022/11/01 09:22:43;;;;;;;6.22;2.28;;;;;;;20.22;nan;-24379.56;5084671;28;20728;-69
2022/11/01 09:25:10;;;;;;;5.93;2.50;;;;;;;20.30;nan;-24381.66;5085239;28;20273;-72
2022/11/01 09:27:35;;;;;;;4.25;2.13;;;;;;;20.69;nan;-24392.34;5085742;28;21193;-70
2022/11/01 09:30:01;;;;;;;4.15;2.63;;;;;;;20.61;nan;-24390.13;5083530;28;20280;-70
2022/11/01 09:32:28;;;;;;;3.20;2.30;;;;;;;20.69;nan;-24392.34;5082240;28;20205;-72
2022/11/01 09:34:53;;;;;;;9.55;2.50;;;;;;;20.59;nan;-24389.56;5085278;28;20325;-68
2022/11/01 09:37:18;;;;;;;2.83;2.17;;;;;;;20.81;nan;-24395.66;5084879;28;20729;-70
2022/11/01 09:39:44;;;;;;;3.65;2.40;;;;;;;20.95;nan;-24399.41;5083650;28;20177;-69
2022/11/01 09:42:26;;;;;;;2.45;2.22;;;;;;;21.14;nan;-24404.69;5085409;28;20265;-69
2022/11/01 09:44:57;;;;;;;5.05;2.17;;;;;;;21.38;nan;-24411.22;5085512;28;20177;-69
2022/11/01 09:47:27;;;;;;;5.00;3.05;;;;;;;21.37;nan;-24410.94;5084087;28;20185;-69
2022/11/01 09:50:22;;;;;;;3.47;2.35;;;;;;;21.74;nan;-24421.19;5086900;28;20207;-72
2022/11/01 09:52:53;;;;;;;4.65;2.50;;;;;;;21.79;nan;-24422.56;5084933;28;20589;-69
2022/11/01 09:55:42;;;;;;;7.03;3.10;;;;;;;22.14;nan;-24432.13;5082080;28;20193;-71
2022/11/01 09:58:24;;;;;;;5.13;2.53;;;;;;;22.05;nan;-24429.63;5073140;28;20681;-72
2022/11/01 10:01:04;;;;;;;3.10;2.30;;;;;;;21.92;nan;-24426.16;5083900;28;20193;-68
2022/11/01 10:03:32;;;;;;;3.55;2.47;;;;;;;21.66;nan;-24418.97;5081707;28;20173;-73
2022/11/01 10:06:38;;;;;;;6.85;2.60;;;;;;;21.61;nan;-24417.59;5083767;28;20264;-73
2022/11/01 10:09:25;;;;;;;4.72;2.85;;;;;;;21.56;nan;-24416.34;5020902;28;20183;-68
2022/11/01 10:12:05;;;;;;;5.88;2.85;;;;;;;21.69;nan;-24419.78;5072953;28;20186;-70
2022/11/01 10:14:31;;;;;;;5.90;2.80;;;;;;;21.80;nan;-24422.84;5083017;28;20264;-71
2022/11/01 10:17:13;;;;;;;4.93;2.88;;;;;;;21.68;nan;-24419.53;5084189;28;20724;-72
2022/11/01 10:19:44;;;;;;;4.75;2.97;;;;;;;21.76;nan;-24421.75;5083775;28;20184;-70
2022/11/01 10:22:31;;;;;;;5.13;2.88;;;;;;;22.17;nan;-24432.81;5083395;28;20197;-71
2022/11/01 10:25:02;;;;;;;6.75;2.92;;;;;;;22.06;nan;-24429.91;5084097;28;20186;-72
2022/11/01 10:27:52;;;;;;;5.13;2.58;;;;;;;21.57;nan;-24416.63;5083472;28;20612;-71
2022/11/01 10:30:18;;;;;;;5.50;2.63;;;;;;;21.31;nan;-24409.28;5083092;28;20252;-73
2022/11/01 10:32:54;;;;;;;4.50;3.05;;;;;;;21.98;nan;-24427.84;5084578;28;20209;-69
2022/11/01 10:35:24;;;;;;;3.03;2.08;;;;;;;22.63;nan;-24445.53;5084045;28;20184;-73
2022/11/01 10:38:38;;;;;;;5.57;2.50;;;;;;;22.93;nan;-24453.72;5083418;28;20551;-70
2022/11/01 10:41:20;;;;;;;3.85;2.25;;;;;;;22.50;nan;-24441.94;5046416;28;20197;-71
2022/11/01 10:43:52;;;;;;;3.03;2.50;;;;;;;22.64;nan;-24445.81;5082953;28;20598;-71
2022/11/01 10:46:29;;;;;;;5.13;2.15;;;;;;;23.08;nan;-24457.84;5083669;28;20302;-71
2022/11/01 10:49:01;;;;;;;4.93;2.45;;;;;;;23.29;nan;-24463.50;5081820;28;20169;-72
2022/11/01 10:51:29;;;;;;;3.22;2.47;;;;;;;23.11;nan;-24458.69;5083518;28;20289;-73
2022/11/01 10:54:01;;;;;;;5.88;2.78;;;;;;;23.15;nan;-24459.66;5090183;28;20239;-69
2022/11/01 10:56:34;;;;;;;8.02;3.10;;;;;;;23.20;nan;-24461.16;5076084;28;20178;-68
2022/11/01 10:59:16;;;;;;;8.80;2.88;;;;;;;22.90;nan;-24452.88;5089923;28;20174;-71
2022/11/01 11:01:43;;;;;;;3.88;2.33;;;;;;;23.27;nan;-24463.09;5085586;28;20534;-70
2022/11/01 11:04:14;;;;;;;5.18;2.58;;;;;;;23.41;nan;-24466.81;5071078;28;20170;-70
2022/11/01 11:06:41;;;;;;;3.58;2.45;;;;;;;23.23;nan;-24462.00;5080232;28;20177;-70
2022/11/01 11:09:23;;;;;;;7.68;2.75;;;;;;;23.40;nan;-24466.56;5087097;28;20268;-69
2022/11/01 11:11:50;;;;;;;6.47;2.70;;;;;;;23.13;nan;-24459.09;5092808;28;20196;-70
2022/11/01 11:14:19;;;;;;;3.45;2.33;;;;;;;23.62;nan;-24472.50;5093537;28;20286;-71
2022/11/01 11:16:47;;;;;;;5.03;2.90;;;;;;;23.66;nan;-24473.59;5085551;28;20185;-69
2022/11/01 11:19:18;;;;;;;3.47;2.13;;;;;;;23.63;nan;-24472.78;5093853;28;20209;-69
2022/11/01 11:21:45;;;;;;;4.05;2.65;;;;;;;23.33;nan;-24464.75;5094537;28;20181;-70
2022/11/01 11:24:18;;;;;;;6.22;2.58;;;;;;;23.58;nan;-24471.38;5092703;28;20530;-71
2022/11/01 11:26:46;;;;;;;5.30;2.60;;;;;;;23.47;nan;-24468.34;5084838;28;20257;-71
2022/11/01 11:29:33;;;;;;;6.47;2.63;;;;;;;23.62;nan;-24472.63;5087147;28;20552;-68
2022/11/01 11:32:00;;;;;;;8.30;2.58;;;;;;;23.23;nan;-24462.00;5094328;28;20626;-72
2022/11/01 11:34:32;;;;;;;6.47;2.75;;;;;;;23.05;nan;-24457.03;5089563;28;20212;-70
2022/11/01 11:37:00;;;;;;;6.75;2.92;;;;;;;23.45;nan;-24467.94;5092879;28;20790;-69
2022/11/01 11:39:28;;;;;;;4.70;2.78;;;;;;;23.57;nan;-24471.13;5088042;28;20189;-70
2022/11/01 11:42:08;;;;;;;3.88;2.55;;;;;;;23.40;nan;-24466.41;5084662;28;20182;-68
2022/11/01 11:44:34;;;;;;;7.18;2.47;;;;;;;23.56;nan;-24470.84;5081095;28;20174;-71
2022/11/01 11:47:01;;;;;;;3.13;2.30;;;;;;;23.53;nan;-24470.16;5076148;28;20262;-69
2022/11/01 11:49:28;;;;;;;7.03;2.70;;;;;;;23.86;nan;-24478.97;5077742;28;20244;-68
2022/11/01 11:51:54;;;;;;;3.90;2.55;;;;;;;23.37;nan;-24465.59;5092782;28;20184;-71
2022/11/01 11:54:29;;;;;;;4.68;2.42;;;;;;;23.63;nan;-24472.91;5080398;28;20206;-66
2022/11/01 11:57:16;;;;;;;4.40;2.03;;;;;;;23.49;nan;-24468.91;5092091;28;20636;-70
2022/11/01 11:59:44;;;;;;;8.13;2.65;;;;;;;23.68;nan;-24474.28;5089628;28;20174;-74